Time;durP1;ratioP1;P1;durP2;ratioP2;P2;SDS_P1;SDS_P2;PMS_P1;PMS_P2;Temp;Humidity;BMP_temperature;BMP_pressure;BME280_temperature;BME280_humidity;BME280_pressure;Samples;Min_cycle;Max_cycle;Signal;HPM_P1;HPM_P2
2023/07/27 00:01:19;;;;;;;6.32;2.63;;;;;;;17.44;100.00;100796.44;5112635;28;20100;-48
2023/07/27 00:03:45;;;;;;;4.25;2.42;;;;;;;17.14;100.00;100745.97;5104923;28;20051;-46
2023/07/27 00:06:10;;;;;;;4.03;2.20;;;;;;;17.34;100.00;100800.59;5112337;28;20042;-45
2023/07/27 00:08:35;;;;;;;4.72;2.08;;;;;;;17.38;100.00;100805.66;5104395;28;20043;-49
2023/07/27 00:11:01;;;;;;;2.72;1.92;;;;;;;16.98;100.00;100723.06;5112495;28;20115;-46
2023/07/27 00:13:26;;;;;;;3.72;2.00;;;;;;;17.37;100.00;100806.59;5112147;28;20090;-48
2023/07/27 00:15:51;;;;;;;5.75;2.05;;;;;;;17.24;100.00;100784.38;5088219;28;20024;-47
2023/07/27 00:18:17;;;;;;;4.43;2.20;;;;;;;17.16;100.00;100772.50;5112295;28;20031;-46
2023/07/27 00:20:42;;;;;;;5.65;2.40;;;;;;;17.26;100.00;100800.22;5112220;28;20568;-46
2023/07/27 00:23:07;;;;;;;4.20;1.92;;;;;;;16.86;100.00;100730.84;5112535;28;20032;-50
2023/07/27 00:25:33;;;;;;;4.25;2.40;;;;;;;16.43;100.00;100653.72;5112339;28;20043;-47
2023/07/27 00:27:58;;;;;;;7.05;2.58;;;;;;;17.05;100.00;100769.59;5112061;28;20059;-47
2023/07/27 00:30:24;;;;;;;6.30;2.42;;;;;;;17.07;100.00;100789.84;5111773;28;20050;-44
2023/07/27 00:32:49;;;;;;;5.97;2.85;;;;;;;16.99;100.00;100791.25;5112213;28;20027;-49
2023/07/27 00:35:14;;;;;;;5.28;2.67;;;;;;;16.84;100.00;100782.41;5111579;28;20036;-46
2023/07/27 00:37:40;;;;;;;6.53;2.90;;;;;;;16.77;100.00;100778.38;5112151;28;20027;-48
2023/07/27 00:40:06;;;;;;;6.05;2.65;;;;;;;16.24;100.00;100715.03;5112434;28;20039;-46
2023/07/27 00:42:32;;;;;;;4.60;3.38;;;;;;;16.49;100.00;100770.28;5094426;28;20039;-46
2023/07/27 00:44:57;;;;;;;5.10;3.33;;;;;;;15.96;100.00;100697.19;5112359;28;20056;-47
2023/07/27 00:47:22;;;;;;;8.50;3.10;;;;;;;15.99;100.00;100706.75;5112434;28;20409;-45
2023/07/27 00:49:48;;;;;;;5.05;3.35;;;;;;;16.24;100.00;100750.41;5095013;28;20036;-46
2023/07/27 00:52:13;;;;;;;6.18;4.35;;;;;;;15.64;100.00;100658.31;5073703;28;20040;-45
2023/07/27 00:54:39;;;;;;;4.80;3.67;;;;;;;16.12;100.00;100729.00;5091996;28;20032;-45
2023/07/27 00:57:06;;;;;;;6.72;4.03;;;;;;;16.07;100.00;100733.72;5091988;28;20040;-45
2023/07/27 00:59:31;;;;;;;4.75;3.55;;;;;;;16.10;100.00;100734.41;5074117;28;20032;-46
2023/07/27 01:01:57;;;;;;;4.93;4.43;;;;;;;15.98;100.00;100720.97;5073813;28;20032;-45
2023/07/27 01:04:22;;;;;;;6.13;4.28;;;;;;;15.47;100.00;100642.50;5092857;28;20081;-48
2023/07/27 01:06:47;;;;;;;9.88;5.20;;;;;;;15.48;100.00;100666.28;5095013;28;20047;-47
2023/07/27 01:09:13;;;;;;;9.07;4.88;;;;;;;15.45;100.00;100636.38;5096176;28;20173;-46
2023/07/27 01:11:52;;;;;;;6.80;4.97;;;;;;;15.88;100.00;100710.00;5077866;28;20031;-46
2023/07/27 01:14:54;;;;;;;6.90;5.03;;;;;;;15.79;100.00;100712.34;5074109;28;20048;-47
2023/07/27 01:17:21;;;;;;;6.88;5.25;;;;;;;15.85;100.00;100694.25;5075408;28;20056;-47
2023/07/27 01:20:02;;;;;;;7.38;4.97;;;;;;;15.80;100.00;100695.44;5075406;28;20024;-48
2023/07/27 01:22:30;;;;;;;8.47;5.40;;;;;;;15.86;100.00;100684.50;5073557;28;20412;-45
2023/07/27 01:25:30;;;;;;;6.00;4.85;;;;;;;15.74;100.00;100675.44;5075498;28;20281;-48
2023/07/27 01:28:20;;;;;;;7.95;5.25;;;;;;;15.65;100.00;100673.28;5075085;28;20071;-46
2023/07/27 01:30:50;;;;;;;5.30;4.78;;;;;;;15.81;100.00;100667.97;5075310;28;20040;-45
2023/07/27 01:33:26;;;;;;;8.77;4.97;;;;;;;15.79;100.00;100664.56;5073916;28;20032;-45
2023/07/27 01:36:10;;;;;;;9.48;5.72;;;;;;;15.72;100.00;100664.06;5073842;28;20063;-48
2023/07/27 01:38:39;;;;;;;7.15;4.88;;;;;;;15.52;100.00;100646.59;5075016;28;20035;-46
2023/07/27 01:41:06;;;;;;;6.47;4.97;;;;;;;15.20;100.00;100581.19;5073173;28;20038;-45
2023/07/27 01:43:32;;;;;;;4.90;4.30;;;;;;;15.54;100.00;100646.50;5073846;28;20145;-46
2023/07/27 01:45:58;;;;;;;6.93;5.07;;;;;;;15.19;100.00;100563.56;5073696;28;20037;-47
2023/07/27 01:48:26;;;;;;;9.23;4.63;;;;;;;15.35;100.00;100598.06;5073628;28;20036;-47
2023/07/27 01:50:51;;;;;;;7.07;5.50;;;;;;;15.32;100.00;100577.00;5075043;28;20484;-46
2023/07/27 01:53:18;;;;;;;8.27;4.88;;;;;;;15.55;100.00;100619.03;5073754;28;20075;-44
2023/07/27 01:55:44;;;;;;;8.40;5.07;;;;;;;15.58;100.00;100617.06;5073702;28;20120;-45
2023/07/27 01:58:10;;;;;;;6.38;5.70;;;;;;;15.50;100.00;100619.28;5072582;28;20072;-47
2023/07/27 02:00:35;;;;;;;6.47;5.10;;;;;;;15.51;100.00;100604.22;5073379;28;20514;-47
2023/07/27 02:03:01;;;;;;;8.63;5.72;;;;;;;15.07;100.00;100529.78;5073174;28;20043;-46
2023/07/27 02:05:27;;;;;;;6.90;5.60;;;;;;;15.55;100.00;100595.16;5074668;28;20040;-45
2023/07/27 02:07:52;;;;;;;7.18;4.95;;;;;;;15.58;100.00;100601.16;5074221;28;20040;-47
2023/07/27 02:10:18;;;;;;;6.65;5.05;;;;;;;15.54;100.00;100591.66;5074425;28;20044;-47
2023/07/27 02:13:01;;;;;;;10.98;5.40;;;;;;;15.12;100.00;100510.03;5072985;28;20048;-52
2023/07/27 02:15:32;;;;;;;9.68;5.00;;;;;;;15.10;100.00;100509.25;5055791;28;20379;-47
2023/07/27 02:18:06;;;;;;;6.97;4.63;;;;;;;15.53;100.00;100574.00;5074212;28;20020;-47
2023/07/27 02:20:35;;;;;;;4.85;4.25;;;;;;;15.42;100.00;100551.66;5040097;28;20037;-51
2023/07/27 02:23:01;;;;;;;5.75;4.03;;;;;;;15.42;100.00;100557.81;5056454;28;20032;-45
2023/07/27 02:25:27;;;;;;;6.20;4.65;;;;;;;15.39;100.00;100550.03;5056276;28;20488;-49
2023/07/27 02:27:52;;;;;;;8.15;4.88;;;;;;;15.30;100.00;100539.94;5073867;28;20075;-46
2023/07/27 02:30:18;;;;;;;8.65;4.97;;;;;;;15.32;100.00;100523.97;5074061;28;20040;-50
2023/07/27 02:32:43;;;;;;;5.90;4.60;;;;;;;15.40;100.00;100517.28;5074258;28;20067;-50
2023/07/27 02:35:09;;;;;;;7.93;5.30;;;;;;;15.05;100.00;100468.06;5056132;28;20441;-46
2023/07/27 02:37:34;;;;;;;6.72;5.32;;;;;;;15.45;100.00;100511.69;5073953;28;20047;-48
2023/07/27 02:40:00;;;;;;;9.00;5.60;;;;;;;15.44;100.00;100507.34;5073745;28;20442;-48
2023/07/27 02:42:25;;;;;;;9.18;5.90;;;;;;;15.00;100.00;100420.59;5073931;28;20388;-45
2023/07/27 02:44:50;;;;;;;8.73;6.20;;;;;;;15.47;100.00;100481.53;5073508;28;20120;-46
2023/07/27 02:47:15;;;;;;;7.97;6.30;;;;;;;15.52;100.00;100484.78;5086163;28;20040;-48
2023/07/27 02:49:41;;;;;;;7.93;6.32;;;;;;;15.57;100.00;100481.84;5093884;28;20110;-47
2023/07/27 02:52:06;;;;;;;8.23;6.93;;;;;;;15.12;100.00;100409.28;5075747;28;20072;-51
2023/07/27 02:54:32;;;;;;;8.68;7.60;;;;;;;15.55;100.00;100479.28;5093655;28;20208;-49
2023/07/27 02:56:57;;;;;;;11.45;8.65;;;;;;;15.54;100.00;100472.28;5093498;28;20043;-47
2023/07/27 02:59:23;;;;;;;12.43;9.35;;;;;;;15.55;100.00;100473.13;5092384;28;20047;-48
2023/07/27 03:01:48;;;;;;;15.05;10.48;;;;;;;15.11;100.00;100394.34;5093842;28;20067;-48
2023/07/27 03:04:13;;;;;;;14.18;10.23;;;;;;;15.10;100.00;100391.75;5083746;28;20040;-50
2023/07/27 03:06:39;;;;;;;12.55;10.07;;;;;;;15.15;100.00;100413.53;5073699;28;20040;-47
2023/07/27 03:09:04;;;;;;;10.93;8.88;;;;;;;15.00;100.00;100383.47;5073390;28;20032;-47
2023/07/27 03:11:30;;;;;;;14.07;10.45;;;;;;;14.99;100.00;100379.13;5055488;28;20036;-47
2023/07/27 03:13:57;;;;;;;12.15;10.40;;;;;;;14.94;100.00;100372.41;5087974;28;20052;-47
2023/07/27 03:16:22;;;;;;;14.98;11.52;;;;;;;15.02;100.00;100380.75;5075549;28;20095;-45
2023/07/27 03:18:47;;;;;;;13.02;11.57;;;;;;;15.39;100.00;100443.09;5092656;28;20067;-50
2023/07/27 03:21:13;;;;;;;12.98;11.00;;;;;;;15.00;100.00;100374.69;5093370;28;20031;-49
2023/07/27 03:23:38;;;;;;;12.73;11.38;;;;;;;15.38;100.00;100422.84;5093270;28;20040;-50
2023/07/27 03:26:13;;;;;;;16.33;11.73;;;;;;;15.39;100.00;100417.44;5093124;28;20032;-46
2023/07/27 03:28:39;;;;;;;16.10;13.45;;;;;;;14.96;100.00;100336.91;5093255;28;20028;-50
2023/07/27 03:31:22;;;;;;;17.85;13.38;;;;;;;14.97;100.00;100333.28;5093613;28;20036;-50
2023/07/27 03:33:48;;;;;;;17.98;14.35;;;;;;;15.06;100.00;100348.66;5093008;28;20039;-54
2023/07/27 03:36:16;;;;;;;18.05;14.93;;;;;;;15.07;100.00;100344.22;5092586;28;20043;-47
2023/07/27 03:38:41;;;;;;;17.63;15.48;;;;;;;15.47;100.00;100401.13;5113332;28;20034;-51
2023/07/27 03:41:06;;;;;;;19.40;15.18;;;;;;;15.34;100.00;100370.91;5113116;28;20035;-50
2023/07/27 03:43:32;;;;;;;18.52;14.02;;;;;;;15.43;100.00;100387.16;5095082;28;20046;-51
2023/07/27 03:45:57;;;;;;;19.02;14.20;;;;;;;15.45;100.00;100401.16;5113294;28;20028;-52
2023/07/27 03:48:22;;;;;;;17.55;14.40;;;;;;;15.03;100.00;100326.81;5113243;28;20061;-49
2023/07/27 03:50:48;;;;;;;15.88;13.98;;;;;;;15.02;100.00;100315.34;5113427;28;20374;-47
2023/07/27 03:53:13;;;;;;;20.23;14.07;;;;;;;15.48;100.00;100381.59;5098691;28;20471;-51
2023/07/27 03:55:39;;;;;;;18.30;13.60;;;;;;;15.07;100.00;100312.41;5092630;28;20063;-48
2023/07/27 03:58:04;;;;;;;15.20;13.05;;;;;;;15.47;100.00;100374.59;5074398;28;20483;-47
2023/07/27 04:00:29;;;;;;;18.70;13.82;;;;;;;15.43;100.00;100368.56;5074583;28;20031;-51
2023/07/27 04:02:54;;;;;;;18.08;13.13;;;;;;;14.90;100.00;100271.00;5092745;28;20472;-47
2023/07/27 04:05:20;;;;;;;18.45;13.60;;;;;;;15.20;100.00;100318.72;5074515;28;20497;-48
2023/07/27 04:07:49;;;;;;;15.00;13.23;;;;;;;14.93;100.00;100278.78;5092520;28;20468;-46
2023/07/27 04:10:15;;;;;;;13.07;11.65;;;;;;;15.42;100.00;100366.00;5091787;28;20094;-51
2023/07/27 04:12:40;;;;;;;14.40;12.60;;;;;;;14.94;100.00;100271.69;5092447;28;20522;-49
2023/07/27 04:15:06;;;;;;;16.63;12.00;;;;;;;15.06;100.00;100297.47;5092434;28;20465;-51
2023/07/27 04:17:31;;;;;;;15.48;11.80;;;;;;;15.05;100.00;100279.84;5092292;28;20085;-50
2023/07/27 04:19:56;;;;;;;13.52;11.25;;;;;;;15.48;100.00;100341.78;5092414;28;20047;-53
2023/07/27 04:22:22;;;;;;;15.60;11.35;;;;;;;15.14;100.00;100287.25;5092344;28;20036;-50
2023/07/27 04:24:49;;;;;;;11.80;10.10;;;;;;;15.39;100.00;100323.75;5091427;28;20029;-50
2023/07/27 04:27:14;;;;;;;15.35;11.45;;;;;;;15.14;100.00;100274.88;5074107;28;20471;-48
2023/07/27 04:29:39;;;;;;;14.15;11.05;;;;;;;15.62;100.00;100344.47;5092407;28;20028;-54
2023/07/27 04:32:05;;;;;;;13.43;11.38;;;;;;;15.60;100.00;100331.31;5057598;28;20101;-52
2023/07/27 04:34:30;;;;;;;14.45;11.95;;;;;;;15.58;100.00;100327.03;5074288;28;20048;-51
2023/07/27 04:36:56;;;;;;;14.60;10.63;;;;;;;15.59;100.00;100318.97;5092171;28;20488;-49
2023/07/27 04:39:21;;;;;;;12.85;10.45;;;;;;;15.56;100.00;100315.66;5093227;28;20124;-52
2023/07/27 04:41:46;;;;;;;13.30;10.25;;;;;;;15.63;100.00;100323.16;5096498;28;20067;-47
2023/07/27 04:44:12;;;;;;;11.30;10.10;;;;;;;15.65;100.00;100315.94;5096142;28;20383;-47
2023/07/27 04:46:38;;;;;;;13.88;10.75;;;;;;;15.66;100.00;100309.72;5096767;28;20482;-46
2023/07/27 04:49:06;;;;;;;12.90;10.15;;;;;;;15.67;100.00;100306.09;5096352;28;20123;-53
2023/07/27 04:51:31;;;;;;;12.50;9.90;;;;;;;15.45;100.00;100270.34;5096220;28;20384;-52
2023/07/27 04:53:57;;;;;;;10.73;9.00;;;;;;;15.68;100.00;100304.28;5096015;28;20036;-49
2023/07/27 04:56:22;;;;;;;11.15;8.63;;;;;;;15.69;100.00;100290.09;5096299;28;20126;-49
2023/07/27 04:58:47;;;;;;;10.85;8.63;;;;;;;15.36;100.00;100224.03;5095486;28;20028;-47
2023/07/27 05:01:13;;;;;;;6.95;6.35;;;;;;;15.41;100.00;100221.09;5095909;28;20044;-47
2023/07/27 05:03:38;;;;;;;7.72;6.93;;;;;;;15.84;100.00;100293.59;5096002;28;20036;-50
2023/07/27 05:06:03;;;;;;;6.60;5.85;;;;;;;15.83;100.00;100281.25;5077740;28;20059;-51
2023/07/27 05:08:29;;;;;;;7.45;6.57;;;;;;;15.48;100.00;100201.22;5077626;28;20398;-47
2023/07/27 05:10:54;;;;;;;6.85;6.15;;;;;;;15.84;100.00;100267.06;5096025;28;20039;-49
2023/07/27 05:13:19;;;;;;;7.00;6.38;;;;;;;15.51;100.00;100206.34;5095997;28;20059;-50
2023/07/27 05:15:45;;;;;;;6.82;6.22;;;;;;;15.87;100.00;100256.25;5095007;28;20112;-52
2023/07/27 05:18:10;;;;;;;8.93;6.97;;;;;;;16.01;100.00;100280.97;5095876;28;20036;-46
2023/07/27 05:20:35;;;;;;;7.28;6.57;;;;;;;15.87;100.00;100242.97;5095756;28;20038;-48
2023/07/27 05:23:01;;;;;;;5.80;5.22;;;;;;;15.97;100.00;100260.00;5095518;28;20043;-53
2023/07/27 05:25:26;;;;;;;6.72;5.78;;;;;;;15.67;100.00;100191.19;5095800;28;20115;-45
2023/07/27 05:27:51;;;;;;;6.75;5.78;;;;;;;15.73;100.00;100198.75;5095417;28;20040;-48
2023/07/27 05:30:17;;;;;;;6.95;6.10;;;;;;;16.11;100.00;100266.13;5077504;28;20134;-48
2023/07/27 05:32:43;;;;;;;6.38;5.78;;;;;;;15.73;100.00;100188.13;5094882;28;20402;-52
2023/07/27 05:35:08;;;;;;;6.53;5.68;;;;;;;15.63;100.00;100169.28;5095537;28;20531;-49
2023/07/27 05:37:34;;;;;;;6.63;5.93;;;;;;;16.21;100.00;100261.94;5095325;28;20036;-52
2023/07/27 05:39:59;;;;;;;6.22;5.63;;;;;;;15.84;100.00;100198.91;5095392;28;20483;-49
2023/07/27 05:42:24;;;;;;;5.10;4.70;;;;;;;15.88;100.00;100184.47;5095263;28;20364;-48
2023/07/27 05:44:50;;;;;;;5.30;4.80;;;;;;;15.93;100.00;100190.34;5095348;28;20028;-48
2023/07/27 05:47:15;;;;;;;5.30;4.90;;;;;;;16.37;100.00;100256.50;5077237;28;20343;-50
2023/07/27 05:49:40;;;;;;;5.28;4.82;;;;;;;16.40;100.00;100248.34;5093978;28;20513;-48
2023/07/27 05:52:07;;;;;;;6.82;5.90;;;;;;;16.32;100.00;100242.66;5094250;28;20142;-46
2023/07/27 05:54:32;;;;;;;5.85;5.25;;;;;;;16.44;100.00;100244.50;5095288;28;20028;-51
2023/07/27 05:56:57;;;;;;;6.18;5.60;;;;;;;16.33;100.00;100213.34;5095038;28;20058;-46
2023/07/27 05:59:22;;;;;;;6.88;5.47;;;;;;;16.51;100.00;100226.38;5094980;28;20043;-50
2023/07/27 06:01:48;;;;;;;5.43;5.00;;;;;;;16.19;100.00;100160.31;5094891;28;20028;-52
2023/07/27 06:04:13;;;;;;;5.05;4.55;;;;;;;16.65;100.00;100235.16;5077009;28;20153;-51
2023/07/27 06:06:38;;;;;;;5.03;4.63;;;;;;;16.28;100.00;100169.47;5094780;28;20040;-49
2023/07/27 06:09:04;;;;;;;4.90;4.43;;;;;;;16.19;100.00;100168.28;5084097;28;20028;-48
2023/07/27 06:11:29;;;;;;;4.82;4.43;;;;;;;16.67;100.00;100216.44;5115608;28;20060;-49
2023/07/27 06:13:55;;;;;;;4.78;4.40;;;;;;;15.96;100.00;100089.31;5115018;28;20134;-50
2023/07/27 06:16:20;;;;;;;4.32;4.03;;;;;;;16.74;100.00;100226.56;5115131;28;20040;-51
2023/07/27 06:18:46;;;;;;;3.20;3.00;;;;;;;16.39;100.00;100156.31;5096767;28;20027;-51
2023/07/27 06:21:11;;;;;;;3.38;3.08;;;;;;;16.48;100.00;100162.81;5114754;28;20486;-51
2023/07/27 06:23:36;;;;;;;3.50;3.20;;;;;;;16.77;100.00;100210.41;5112984;28;20027;-49
2023/07/27 06:26:02;;;;;;;6.00;3.00;;;;;;;16.47;100.00;100139.84;5107351;28;20040;-52
2023/07/27 06:28:27;;;;;;;4.60;3.10;;;;;;;16.78;100.00;100184.69;5094444;28;20043;-48
2023/07/27 06:30:53;;;;;;;5.28;2.70;;;;;;;16.60;100.00;100156.72;5082141;28;20028;-47
2023/07/27 06:33:18;;;;;;;6.15;3.05;;;;;;;16.93;100.00;100198.75;5093325;28;20024;-50
2023/07/27 06:35:44;;;;;;;6.57;3.00;;;;;;;17.00;100.00;100202.66;5094189;28;20036;-52
2023/07/27 06:38:09;;;;;;;7.07;3.25;;;;;;;16.59;100.00;100128.44;5094223;28;20043;-49
2023/07/27 06:40:34;;;;;;;6.05;3.00;;;;;;;16.70;100.00;100145.34;5094350;28;20039;-48
2023/07/27 06:43:00;;;;;;;5.15;3.03;;;;;;;17.10;100.00;100191.31;5093572;28;20475;-48
2023/07/27 06:45:25;;;;;;;5.55;3.05;;;;;;;16.79;100.00;100134.09;5075733;28;20491;-47
2023/07/27 06:47:50;;;;;;;5.75;2.80;;;;;;;17.17;100.00;100216.50;5094139;28;20048;-51
2023/07/27 06:50:16;;;;;;;4.82;2.65;;;;;;;17.23;100.00;100197.47;5094030;28;20490;-48
2023/07/27 06:52:41;;;;;;;4.60;2.63;;;;;;;17.21;100.00;100186.09;5094078;28;20036;-48
2023/07/27 06:55:07;;;;;;;4.10;2.47;;;;;;;17.33;100.00;100201.19;5114221;28;20040;-51
2023/07/27 06:57:33;;;;;;;5.45;3.08;;;;;;;17.00;100.00;100136.22;5095990;28;20035;-50
2023/07/27 06:59:58;;;;;;;5.18;2.20;;;;;;;17.43;100.00;100199.56;5108595;28;20051;-47
2023/07/27 07:02:23;;;;;;;5.68;2.50;;;;;;;17.11;100.00;100142.47;5112453;28;20092;-48
2023/07/27 07:04:49;;;;;;;4.75;2.80;;;;;;;16.96;100.00;100118.78;5114079;28;20036;-49
2023/07/27 07:07:14;;;;;;;5.18;2.40;;;;;;;17.38;100.00;100191.06;5113823;28;20039;-48
2023/07/27 07:09:40;;;;;;;4.35;2.13;;;;;;;17.02;100.00;100136.94;5114115;28;20071;-48
2023/07/27 07:12:06;;;;;;;6.40;2.00;;;;;;;17.47;100.00;100207.34;5095892;28;20050;-47
2023/07/27 07:14:32;;;;;;;6.82;2.50;;;;;;;17.45;100.00;100199.50;5101284;28;20135;-49
2023/07/27 07:17:01;;;;;;;4.28;2.20;;;;;;;17.32;100.00;100170.22;5075380;28;20119;-49
2023/07/27 07:19:26;;;;;;;4.38;1.83;;;;;;;17.58;100.00;100203.00;5073856;28;20047;-48
2023/07/27 07:21:52;;;;;;;3.83;2.15;;;;;;;17.57;100.00;100206.59;5093305;28;20039;-49
2023/07/27 07:24:18;;;;;;;8.48;2.40;;;;;;;17.63;100.00;100198.19;5093463;28;20093;-49
2023/07/27 07:26:43;;;;;;;5.95;2.25;;;;;;;17.69;100.00;100194.22;5093244;28;20036;-48
2023/07/27 07:29:09;;;;;;;6.53;2.10;;;;;;;17.78;100.00;100204.22;5075417;28;20097;-48
2023/07/27 07:31:34;;;;;;;6.45;2.30;;;;;;;17.88;100.00;100186.63;5102810;28;20035;-47
2023/07/27 07:33:59;;;;;;;5.50;2.65;;;;;;;17.32;100.00;100078.94;5113149;28;20040;-49
2023/07/27 07:36:25;;;;;;;6.40;2.05;;;;;;;18.02;100.00;100178.50;5097192;28;20021;-51
2023/07/27 07:38:51;;;;;;;7.88;2.47;;;;;;;18.02;100.00;100186.47;5093094;28;20039;-47
2023/07/27 07:41:16;;;;;;;6.97;2.67;;;;;;;17.68;100.00;100123.34;5074996;28;20528;-49
2023/07/27 07:43:42;;;;;;;5.85;2.13;;;;;;;17.63;100.00;100105.03;5101547;28;20036;-49
2023/07/27 07:46:11;;;;;;;4.63;2.05;;;;;;;17.94;100.00;100152.44;5105862;28;20028;-49
2023/07/27 07:48:36;;;;;;;5.70;1.83;;;;;;;17.66;100.00;100109.31;5094399;28;20028;-46
2023/07/27 07:51:01;;;;;;;3.70;1.90;;;;;;;17.73;100.00;100119.38;5090799;28;20447;-49
2023/07/27 07:53:27;;;;;;;5.80;2.55;;;;;;;18.09;100.00;100177.09;5074910;28;20039;-47
2023/07/27 07:55:52;;;;;;;4.63;1.70;;;;;;;18.06;100.00;100173.78;5095696;28;20036;-47
2023/07/27 07:58:17;;;;;;;3.60;1.75;;;;;;;17.66;100.00;100117.31;5092905;28;20100;-47
2023/07/27 08:00:43;;;;;;;3.78;1.80;;;;;;;17.97;100.00;100175.31;5074731;28;20054;-49
2023/07/27 08:03:08;;;;;;;3.58;1.90;;;;;;;17.99;100.00;100176.91;5093052;28;20028;-52
2023/07/27 08:05:33;;;;;;;4.15;1.70;;;;;;;18.00;100.00;100183.09;5097045;28;20040;-49
2023/07/27 08:07:59;;;;;;;4.57;1.60;;;;;;;17.98;100.00;100169.88;5109617;28;20027;-47
2023/07/27 08:10:24;;;;;;;4.40;2.03;;;;;;;18.04;100.00;100181.88;5077856;28;20040;-50
2023/07/27 08:12:50;;;;;;;7.00;2.38;;;;;;;17.79;100.00;100107.44;5092206;28;20023;-47
2023/07/27 08:15:17;;;;;;;5.40;2.40;;;;;;;17.56;100.00;100081.66;5105488;28;20431;-52
2023/07/27 08:17:42;;;;;;;8.18;2.00;;;;;;;17.69;100.00;100087.75;5112734;28;20032;-51
2023/07/27 08:20:09;;;;;;;5.75;2.13;;;;;;;18.17;100.00;100161.38;5110250;28;20040;-47
2023/07/27 08:22:34;;;;;;;9.52;3.15;;;;;;;18.21;100.00;100156.69;5110371;28;20436;-49
2023/07/27 08:25:00;;;;;;;8.05;2.47;;;;;;;18.40;100.00;100167.66;5110221;28;20035;-52
2023/07/27 08:27:25;;;;;;;9.70;3.92;;;;;;;18.45;100.00;100163.66;5092274;28;20047;-49
2023/07/27 08:29:51;;;;;;;11.45;4.60;;;;;;;18.51;100.00;100152.59;5092357;28;20475;-49
2023/07/27 08:32:16;;;;;;;11.07;3.20;;;;;;;18.39;100.00;100145.47;5095272;28;20501;-49
2023/07/27 08:34:41;;;;;;;13.65;4.22;;;;;;;18.12;100.00;100088.97;5092162;28;20028;-50
2023/07/27 08:37:06;;;;;;;9.38;2.63;;;;;;;18.62;100.00;100150.94;5092806;28;20460;-53
2023/07/27 08:39:32;;;;;;;33.55;9.60;;;;;;;18.33;100.00;100067.84;5077593;28;20446;-47
2023/07/27 08:41:58;;;;;;;27.60;8.73;;;;;;;18.85;100.00;100156.19;5088768;28;20031;-48
2023/07/27 08:44:24;;;;;;;30.40;9.07;;;;;;;18.94;100.00;100141.31;5074042;28;20032;-47
2023/07/27 08:46:49;;;;;;;7.57;2.88;;;;;;;18.99;100.00;100144.44;5076810;28;20036;-49
2023/07/27 08:49:15;;;;;;;13.68;3.75;;;;;;;18.67;100.00;100084.78;5074356;28;20039;-49
2023/07/27 08:51:44;;;;;;;8.80;2.30;;;;;;;18.95;100.00;100126.97;5075765;28;20040;-50
2023/07/27 08:54:09;;;;;;;8.88;2.30;;;;;;;19.07;100.00;100132.22;5092007;28;20037;-47
2023/07/27 08:56:35;;;;;;;7.45;2.50;;;;;;;18.95;100.00;100122.50;5093029;28;20498;-48
2023/07/27 08:59:01;;;;;;;9.57;2.70;;;;;;;19.13;100.00;100160.22;5073748;28;20039;-52
2023/07/27 09:01:26;;;;;;;9.00;3.08;;;;;;;19.19;100.00;100172.22;5075389;28;20036;-48
2023/07/27 09:03:52;;;;;;;5.70;1.92;;;;;;;19.19;100.00;100161.56;5073764;28;20091;-48
2023/07/27 09:06:44;;;;;;;4.78;2.22;;;;;;;18.70;100.00;100098.72;5092143;28;20379;-50
2023/07/27 09:09:25;;;;;;;7.00;2.38;;;;;;;18.67;100.00;100098.09;5076457;28;20035;-53
2023/07/27 09:11:52;;;;;;;8.63;1.83;;;;;;;18.67;100.00;100111.44;5091868;28;20032;-49
2023/07/27 09:14:19;;;;;;;5.15;1.67;;;;;;;18.63;100.00;100099.28;5072990;28;20399;-50
2023/07/27 09:16:45;;;;;;;5.93;1.65;;;;;;;18.94;100.00;100146.63;5104048;28;20040;-50
2023/07/27 09:19:11;;;;;;;6.47;1.65;;;;;;;18.72;100.00;100088.78;5101774;28;20039;-47
2023/07/27 09:21:48;;;;;;;2.70;0.98;;;;;;;19.17;100.00;100160.84;5092006;28;20040;-50
2023/07/27 09:24:15;;;;;;;3.50;1.30;;;;;;;19.15;100.00;100160.94;5112219;28;20030;-50
2023/07/27 09:26:52;;;;;;;6.13;1.33;;;;;;;19.14;100.00;100148.59;5097013;28;20054;-51
2023/07/27 09:29:20;;;;;;;6.65;1.38;;;;;;;18.99;100.00;100117.78;5102838;28;20077;-55
2023/07/27 09:31:49;;;;;;;4.15;1.40;;;;;;;19.27;100.00;100156.47;5113182;28;20043;-51
2023/07/27 09:34:15;;;;;;;2.78;1.42;;;;;;;19.23;100.00;100155.88;5094652;28;20039;-52
2023/07/27 09:36:41;;;;;;;5.10;1.30;;;;;;;19.15;100.00;100112.09;5097531;28;20031;-48
2023/07/27 09:39:07;;;;;;;7.05;1.60;;;;;;;18.78;100.00;100044.78;5115807;28;20102;-48
2023/07/27 09:41:32;;;;;;;5.50;1.50;;;;;;;19.03;100.00;100092.56;5095702;28;20070;-48
2023/07/27 09:43:58;;;;;;;3.70;1.50;;;;;;;19.37;100.00;100168.13;5095176;28;20056;-48
2023/07/27 09:46:23;;;;;;;6.78;1.60;;;;;;;18.91;100.00;100097.03;5077261;28;20028;-48
2023/07/27 09:48:49;;;;;;;6.90;1.83;;;;;;;18.91;100.00;100088.22;5095215;28;20036;-50
2023/07/27 09:51:18;;;;;;;8.40;1.33;;;;;;;18.83;100.00;100093.25;5094489;28;20057;-47
2023/07/27 09:53:45;;;;;;;6.55;1.27;;;;;;;19.13;100.00;100146.03;5076874;28;20044;-49
2023/07/27 09:56:15;;;;;;;6.50;1.42;;;;;;;19.20;100.00;100163.28;5095519;28;20040;-52
2023/07/27 09:58:41;;;;;;;4.63;1.63;;;;;;;18.91;100.00;100112.22;5097219;28;20067;-48
2023/07/27 10:01:07;;;;;;;3.22;1.40;;;;;;;19.25;100.00;100172.59;5106824;28;20502;-48
2023/07/27 10:03:33;;;;;;;6.50;1.10;;;;;;;19.20;100.00;100161.44;5094894;28;20115;-47
2023/07/27 10:05:59;;;;;;;4.78;1.20;;;;;;;18.83;100.00;100103.94;5090396;28;20112;-47
2023/07/27 10:08:24;;;;;;;3.88;1.27;;;;;;;19.16;100.00;100146.66;5083840;28;20032;-53
2023/07/27 10:10:54;;;;;;;5.32;1.90;;;;;;;18.24;100.00;99988.63;5060364;28;20039;-49
2023/07/27 10:13:22;;;;;;;4.32;1.45;;;;;;;19.33;100.00;100154.16;5102562;28;20079;-52
2023/07/27 10:15:50;;;;;;;4.35;1.63;;;;;;;19.37;100.00;100141.44;5095091;28;20036;-53
2023/07/27 10:18:20;;;;;;;4.90;1.45;;;;;;;18.79;100.00;100028.69;5077591;28;20064;-51
2023/07/27 10:20:46;;;;;;;3.88;1.30;;;;;;;19.53;100.00;100155.28;5103576;28;20047;-50
2023/07/27 10:23:20;;;;;;;6.03;1.75;;;;;;;19.51;100.00;100160.75;5094434;28;20024;-50
2023/07/27 10:25:54;;;;;;;3.53;1.40;;;;;;;19.56;100.00;100158.53;5094302;28;20032;-52
2023/07/27 10:28:40;;;;;;;2.55;1.10;;;;;;;19.65;100.00;100172.97;5094336;28;20406;-45
2023/07/27 10:31:23;;;;;;;3.83;1.33;;;;;;;19.67;100.00;100163.03;5095181;28;20380;-52
2023/07/27 10:33:53;;;;;;;6.40;1.55;;;;;;;19.70;100.00;100162.81;5094351;28;20036;-47
2023/07/27 10:36:20;;;;;;;5.10;1.40;;;;;;;19.58;100.00;100142.44;5094147;28;20115;-52
2023/07/27 10:38:55;;;;;;;4.18;1.50;;;;;;;19.70;100.00;100154.78;5076427;28;20028;-50
2023/07/27 10:41:23;;;;;;;5.15;1.42;;;;;;;19.71;100.00;100145.78;5075854;28;20533;-53
2023/07/27 10:44:06;;;;;;;5.40;1.20;;;;;;;19.83;100.00;100165.31;5093819;28;20418;-50
2023/07/27 10:46:32;;;;;;;3.55;1.23;;;;;;;19.82;100.00;100161.78;5094089;28;20172;-53
2023/07/27 10:48:58;;;;;;;2.47;1.50;;;;;;;19.79;100.00;100158.53;5093642;28;20042;-51
2023/07/27 10:51:27;;;;;;;4.88;1.60;;;;;;;19.50;100.00;100089.63;5074921;28;20127;-50
2023/07/27 10:53:52;;;;;;;2.40;1.00;;;;;;;19.92;100.00;100164.56;5076377;28;20036;-53
2023/07/27 10:56:18;;;;;;;1.92;1.00;;;;;;;19.47;100.00;100089.03;5075691;28;20520;-49
2023/07/27 10:58:45;;;;;;;1.50;0.90;;;;;;;19.83;100.00;100143.94;5094157;28;20039;-50
2023/07/27 11:01:10;;;;;;;3.95;1.10;;;;;;;19.92;100.00;100146.72;5093724;28;20032;-51
2023/07/27 11:03:36;;;;;;;3.08;1.30;;;;;;;20.13;100.00;100158.31;5093884;28;20530;-50
2023/07/27 11:06:06;;;;;;;2.13;0.93;;;;;;;20.10;100.00;100165.75;5092746;28;20357;-52
2023/07/27 11:08:36;;;;;;;2.27;1.10;;;;;;;20.10;100.00;100176.41;5108066;28;20040;-50
2023/07/27 11:11:16;;;;;;;3.53;1.13;;;;;;;20.04;100.00;100159.06;5105687;28;20040;-52
2023/07/27 11:13:41;;;;;;;2.92;1.17;;;;;;;19.98;100.00;100162.25;5093548;28;20046;-53